createdAt,value
2022-10-18T00:04:13.209Z,6.32
2022-10-18T00:09:15.081Z,6.15
2022-10-18T00:14:17.091Z,7.70
2022-10-18T00:19:18.933Z,7.80
2022-10-18T00:24:20.781Z,6.47
2022-10-18T00:29:22.561Z,6.22
2022-10-18T00:34:24.491Z,6.07
2022-10-18T00:39:26.402Z,9.02
2022-10-18T00:44:28.374Z,6.43
2022-10-18T00:49:38.163Z,5.97
2022-10-18T00:54:44.169Z,7.00
2022-10-18T00:59:47.176Z,8.30
2022-10-18T01:04:49.319Z,6.95
2022-10-18T01:10:38.063Z,7.65
2022-10-18T01:16:03.901Z,6.13
2022-10-18T01:21:37.833Z,6.90
2022-10-18T01:27:00.319Z,4.57
2022-10-18T01:32:13.332Z,8.43
2022-10-18T01:37:18.330Z,7.78
2022-10-18T01:42:21.625Z,6.82
2022-10-18T01:47:23.961Z,4.72
2022-10-18T01:52:25.853Z,5.22
2022-10-18T01:57:42.403Z,11.43
2022-10-18T02:02:50.192Z,12.65
2022-10-18T02:08:23.585Z,5.30
2022-10-18T02:13:35.470Z,5.15
2022-10-18T02:18:42.628Z,4.65
2022-10-18T02:23:46.542Z,6.03
2022-10-18T02:28:48.441Z,4.95
2022-10-18T02:34:18.492Z,3.40
2022-10-18T02:39:25.745Z,5.78
2022-10-18T02:44:27.544Z,3.70
2022-10-18T02:49:29.484Z,4.57
2022-10-18T02:54:31.291Z,9.30
2022-10-18T02:59:33.786Z,6.72
2022-10-18T03:04:35.602Z,6.85
2022-10-18T03:09:37.418Z,6.88
2022-10-18T03:14:39.228Z,7.40
2022-10-18T03:19:41.351Z,4.93
2022-10-18T03:24:43.182Z,6.03
2022-10-18T03:29:44.930Z,5.18
2022-10-18T03:34:46.734Z,6.45
2022-10-18T03:39:48.537Z,7.20
2022-10-18T03:44:50.303Z,6.18
2022-10-18T03:49:54.766Z,7.80
2022-10-18T03:54:59.044Z,11.30
2022-10-18T04:00:00.954Z,5.70
2022-10-18T04:05:02.936Z,10.35
2022-10-18T04:10:05.067Z,7.30
2022-10-18T04:15:07.702Z,6.50
2022-10-18T04:20:10.091Z,5.97
2022-10-18T04:25:11.982Z,4.75
2022-10-18T04:30:14.093Z,5.03
2022-10-18T04:35:16.038Z,7.70
2022-10-18T04:40:18.005Z,4.55
2022-10-18T04:45:20.142Z,5.47
2022-10-18T04:50:22.061Z,5.72
2022-10-18T04:55:24.786Z,4.57
2022-10-18T05:00:26.665Z,9.00
2022-10-18T05:05:49.890Z,8.52
2022-10-18T05:10:50.605Z,10.70
2022-10-18T05:15:52.473Z,6.90
2022-10-18T05:20:54.411Z,9.75
2022-10-18T05:26:01.613Z,10.10
2022-10-18T05:31:07.850Z,10.70
2022-10-18T05:36:11.007Z,5.72
2022-10-18T05:41:13.232Z,5.13
2022-10-18T05:46:15.831Z,6.07
2022-10-18T05:51:19.319Z,8.75
2022-10-18T05:56:21.204Z,11.90
2022-10-18T06:01:23.251Z,8.13
2022-10-18T06:06:25.130Z,6.95
2022-10-18T06:11:27.203Z,7.22
2022-10-18T06:16:32.475Z,7.93
2022-10-18T06:21:34.981Z,4.78
2022-10-18T06:26:39.853Z,9.77
2022-10-18T06:31:44.533Z,8.43
2022-10-18T06:36:46.385Z,12.63
2022-10-18T06:41:48.178Z,7.30
2022-10-18T06:46:59.397Z,17.25
2022-10-18T06:52:01.296Z,7.82
2022-10-18T06:57:03.357Z,6.63
2022-10-18T07:02:05.169Z,7.32
2022-10-18T07:07:07.017Z,6.55
2022-10-18T07:12:08.889Z,8.77
2022-10-18T07:17:10.759Z,9.45
2022-10-18T07:22:12.604Z,7.25
2022-10-18T07:27:14.436Z,7.35
2022-10-18T07:32:16.233Z,7.13
2022-10-18T07:37:18.172Z,6.90
2022-10-18T07:42:20.026Z,7.40
2022-10-18T07:47:21.759Z,6.53
2022-10-18T07:52:23.527Z,5.32
2022-10-18T07:57:25.491Z,10.43
2022-10-18T08:02:27.579Z,8.98
2022-10-18T08:07:29.539Z,12.93
2022-10-18T08:12:31.651Z,11.45
2022-10-18T08:17:34.586Z,16.20
2022-10-18T08:22:36.895Z,14.80
2022-10-18T08:27:39.078Z,17.30
2022-10-18T08:32:40.965Z,12.88
2022-10-18T08:37:42.810Z,13.10
2022-10-18T08:42:54.996Z,14.35
2022-10-18T08:47:58.301Z,12.02
2022-10-18T08:53:18.115Z,12.05
2022-10-18T08:58:23.428Z,10.85
2022-10-18T09:04:03.121Z,10.05
2022-10-18T09:09:17.200Z,12.00
2022-10-18T09:15:04.161Z,17.35
2022-10-18T09:20:17.988Z,21.25
2022-10-18T09:25:24.569Z,17.02
2022-10-18T09:30:58.757Z,15.00
2022-10-18T09:36:05.858Z,11.30
2022-10-18T09:41:15.168Z,18.65
2022-10-18T09:46:20.697Z,11.98
2022-10-18T09:51:28.336Z,15.38
2022-10-18T10:01:34.035Z,15.00
2022-10-18T10:06:39.298Z,16.52
2022-10-18T10:11:51.844Z,15.30
2022-10-18T10:17:03.590Z,16.02
2022-10-18T10:22:09.608Z,17.65
2022-10-18T10:27:32.722Z,12.68
2022-10-18T10:32:50.615Z,10.55
2022-10-18T10:37:54.328Z,14.55
2022-10-18T10:43:18.130Z,20.65
2022-10-18T10:48:33.465Z,14.15
2022-10-18T10:59:01.633Z,19.45
2022-10-18T11:09:32.204Z,18.30
2022-10-18T11:14:41.954Z,19.83
2022-10-18T11:19:50.153Z,22.80
2022-10-18T11:24:52.070Z,12.32
2022-10-18T11:30:29.033Z,11.63
2022-10-18T11:35:50.476Z,12.98
2022-10-18T11:41:40.798Z,11.18
2022-10-18T11:47:17.119Z,11.73
2022-10-18T11:52:33.769Z,10.90
2022-10-18T11:57:54.182Z,13.02
2022-10-18T12:03:24.148Z,10.10
2022-10-18T12:08:36.533Z,11.68
2022-10-18T12:13:59.385Z,10.85
2022-10-18T12:19:11.813Z,7.07
2022-10-18T12:24:21.641Z,4.22
2022-10-18T12:29:37.452Z,3.58
2022-10-18T12:34:51.691Z,4.50
2022-10-18T12:40:12.154Z,5.55
2022-10-18T12:45:35.573Z,5.57
2022-10-18T12:50:43.632Z,3.65
2022-10-18T12:55:51.957Z,1.60
2022-10-18T13:00:57.288Z,5.38
2022-10-18T13:06:02.981Z,2.40
2022-10-18T13:11:08.226Z,1.35
2022-10-18T13:16:25.286Z,1.27
2022-10-18T13:21:48.548Z,0.77
2022-10-18T13:27:18.030Z,2.42
2022-10-18T13:32:29.559Z,2.00
2022-10-18T13:37:32.303Z,1.70
2022-10-18T13:42:34.598Z,0.80
2022-10-18T13:47:38.370Z,1.55
2022-10-18T13:53:24.671Z,1.55
2022-10-18T13:58:49.187Z,1.17
2022-10-18T14:04:23.233Z,1.48
2022-10-18T14:09:45.335Z,2.05
2022-10-18T14:14:56.723Z,6.03
2022-10-18T14:20:14.601Z,1.23
2022-10-18T14:30:23.062Z,2.50
2022-10-18T14:35:32.521Z,1.27
2022-10-18T14:40:40.574Z,1.50
2022-10-18T14:45:43.130Z,1.73
2022-10-18T14:50:47.434Z,2.03
2022-10-18T14:56:00.866Z,5.53
2022-10-18T15:01:03.163Z,1.73
2022-10-18T15:06:07.773Z,1.30
2022-10-18T15:11:14.266Z,5.53
2022-10-18T15:16:18.943Z,2.87
2022-10-18T15:21:24.751Z,3.35
2022-10-18T15:26:30.461Z,4.53
2022-10-18T15:31:35.948Z,2.30
2022-10-18T15:36:38.128Z,6.57
2022-10-18T15:41:45.441Z,2.13
2022-10-18T15:46:47.917Z,1.83
2022-10-18T15:51:51.376Z,1.95
2022-10-18T15:56:53.185Z,1.67
2022-10-18T16:01:55.376Z,2.92
2022-10-18T16:06:58.169Z,3.15
2022-10-18T16:11:59.982Z,2.90
2022-10-18T16:17:05.105Z,3.13
2022-10-18T16:22:07.206Z,4.07
2022-10-18T16:27:10.249Z,2.80
2022-10-18T16:32:11.991Z,1.60
2022-10-18T16:37:14.193Z,4.63
2022-10-18T16:42:16.035Z,2.10
2022-10-18T16:47:18.092Z,2.60
2022-10-18T16:52:19.902Z,2.95
2022-10-18T16:57:21.747Z,3.28
2022-10-18T17:02:23.568Z,2.28
2022-10-18T17:07:25.743Z,1.55
2022-10-18T17:12:27.574Z,1.10
2022-10-18T17:17:29.621Z,1.73
2022-10-18T17:22:31.892Z,1.42
2022-10-18T17:27:33.793Z,3.13
2022-10-18T17:32:35.723Z,2.85
2022-10-18T17:37:42.718Z,1.45
2022-10-18T17:42:47.686Z,2.25
2022-10-18T17:47:49.589Z,2.15
2022-10-18T17:52:51.378Z,2.40
2022-10-18T17:57:53.209Z,4.22
2022-10-18T18:03:01.280Z,1.50
2022-10-18T18:08:04.369Z,2.13
2022-10-18T18:13:06.491Z,1.63
2022-10-18T18:18:08.235Z,5.00
2022-10-18T18:23:10.061Z,3.65
2022-10-18T18:28:11.867Z,3.97
2022-10-18T18:33:13.672Z,2.17
2022-10-18T18:38:15.516Z,1.70
2022-10-18T18:43:24.560Z,2.20
2022-10-18T18:48:28.153Z,1.23
2022-10-18T18:53:30.663Z,1.85
2022-10-18T18:58:34.835Z,1.48
2022-10-18T19:03:38.789Z,1.55
2022-10-18T19:08:40.637Z,4.60
2022-10-18T19:13:42.761Z,2.67
2022-10-18T19:18:58.041Z,3.10
2022-10-18T19:24:00.462Z,3.78
2022-10-18T19:29:16.351Z,2.47
2022-10-18T19:34:19.666Z,4.68
2022-10-18T19:39:22.874Z,3.20
2022-10-18T19:44:28.827Z,3.38
2022-10-18T19:49:30.773Z,3.30
2022-10-18T19:54:32.694Z,3.67
2022-10-18T19:59:36.232Z,4.15
2022-10-18T20:04:38.311Z,4.32
2022-10-18T20:09:40.403Z,4.90
2022-10-18T20:14:42.259Z,10.60
2022-10-18T20:19:44.208Z,3.45
2022-10-18T20:24:46.066Z,3.08
2022-10-18T20:29:47.799Z,6.90
2022-10-18T20:34:49.553Z,4.57
2022-10-18T20:39:51.329Z,8.13
2022-10-18T20:44:53.394Z,6.03
2022-10-18T20:49:55.141Z,5.13
2022-10-18T20:54:56.875Z,5.18
2022-10-18T20:59:58.863Z,5.10
2022-10-18T21:05:00.554Z,8.27
2022-10-18T21:10:02.282Z,5.25
2022-10-18T21:15:04.363Z,6.82
2022-10-18T21:20:07.055Z,6.65
2022-10-18T21:25:10.365Z,7.50
2022-10-18T21:35:19.579Z,6.43
2022-10-18T21:40:21.244Z,6.85
2022-10-18T21:45:23.000Z,6.45
2022-10-18T21:50:24.723Z,7.97
2022-10-18T21:55:26.474Z,7.82
2022-10-18T22:00:28.200Z,10.02
2022-10-18T22:05:30.042Z,10.93
2022-10-18T22:10:32.318Z,9.48
2022-10-18T22:15:34.055Z,12.10
2022-10-18T22:20:35.899Z,12.18
2022-10-18T22:25:37.537Z,13.15
2022-10-18T22:30:40.845Z,20.17
2022-10-18T22:35:42.548Z,14.20
2022-10-18T22:40:45.043Z,14.05
2022-10-18T22:45:46.806Z,18.02
2022-10-18T22:50:51.661Z,15.60
2022-10-18T22:55:54.085Z,17.30
2022-10-18T23:01:08.118Z,19.08
2022-10-18T23:06:27.156Z,14.45
2022-10-18T23:11:29.260Z,15.48
2022-10-18T23:16:31.247Z,17.48
2022-10-18T23:21:34.370Z,17.33
2022-10-18T23:26:36.089Z,15.80
2022-10-18T23:31:37.906Z,14.85
2022-10-18T23:36:39.730Z,19.00
2022-10-18T23:41:41.526Z,17.08
2022-10-18T23:46:43.218Z,13.05
2022-10-18T23:51:44.975Z,14.95
2022-10-18T23:56:46.705Z,14.73
